createdAt,value
2019-04-07T00:00:59.813Z,21.73
2019-04-07T00:03:29.443Z,23.47
2019-04-07T00:06:01.128Z,21.37
2019-04-07T00:08:31.219Z,21.80
2019-04-07T00:11:01.342Z,21.10
2019-04-07T00:13:31.022Z,22.60
2019-04-07T00:16:00.418Z,22.23
2019-04-07T00:18:29.790Z,23.93
2019-04-07T00:21:02.530Z,22.23
2019-04-07T00:23:32.013Z,21.20
2019-04-07T00:26:02.154Z,21.90
2019-04-07T00:28:31.599Z,21.87
2019-04-07T00:31:01.093Z,22.70
2019-04-07T00:33:33.440Z,21.80
2019-04-07T00:36:04.281Z,20.53
2019-04-07T00:38:33.696Z,21.10
2019-04-07T00:41:03.032Z,20.80
2019-04-07T00:43:32.326Z,18.07
2019-04-07T00:46:02.344Z,19.30
2019-04-07T00:48:32.112Z,20.70
2019-04-07T00:51:01.567Z,21.37
2019-04-07T00:53:30.998Z,18.53
2019-04-07T00:56:00.469Z,19.47
2019-04-07T00:58:30.197Z,21.40
2019-04-07T01:00:59.788Z,22.53
2019-04-07T01:03:29.108Z,22.27
2019-04-07T01:05:58.754Z,26.27
2019-04-07T01:08:28.251Z,23.33
2019-04-07T01:10:58.009Z,21.27
2019-04-07T01:13:27.479Z,19.47
2019-04-07T01:15:57.146Z,21.50
2019-04-07T01:18:31.740Z,23.53
2019-04-07T01:21:01.523Z,22.27
2019-04-07T01:23:31.539Z,21.30
2019-04-07T01:26:00.967Z,21.40
2019-04-07T01:28:30.343Z,17.37
2019-04-07T01:31:00.781Z,22.70
2019-04-07T01:33:30.100Z,21.97
2019-04-07T01:35:59.842Z,22.40
2019-04-07T01:38:29.331Z,19.90
2019-04-07T01:41:07.726Z,20.97
2019-04-07T01:43:42.405Z,20.77
2019-04-07T01:46:19.136Z,20.43
2019-04-07T01:49:08.119Z,21.10
2019-04-07T01:51:56.466Z,21.17
2019-04-07T01:55:02.948Z,19.70
2019-04-07T01:57:50.722Z,20.50
2019-04-07T02:00:43.545Z,20.57
2019-04-07T02:03:21.843Z,19.70
2019-04-07T02:06:05.694Z,19.50
2019-04-07T02:08:54.976Z,20.60
2019-04-07T02:11:35.436Z,22.80
2019-04-07T02:14:20.264Z,20.90
2019-04-07T02:17:07.082Z,19.70
2019-04-07T02:19:44.839Z,19.50
2019-04-07T02:22:36.617Z,18.53
2019-04-07T02:25:25.396Z,19.73
2019-04-07T02:28:08.038Z,19.20
2019-04-07T02:31:02.660Z,19.57
2019-04-07T02:34:00.079Z,21.20
2019-04-07T02:37:03.248Z,19.00
2019-04-07T02:40:00.624Z,17.47
2019-04-07T02:42:49.014Z,16.40
2019-04-07T02:45:28.381Z,16.37
2019-04-07T02:48:05.122Z,16.47
2019-04-07T02:50:53.518Z,16.93
2019-04-07T02:53:49.168Z,18.70
2019-04-07T02:56:30.984Z,16.80
2019-04-07T02:59:08.589Z,14.63
2019-04-07T03:01:51.994Z,15.60
2019-04-07T03:04:52.457Z,16.47
2019-04-07T03:07:41.340Z,16.10
2019-04-07T03:10:19.660Z,15.27
2019-04-07T03:13:24.315Z,16.13
2019-04-07T03:16:12.699Z,14.83
2019-04-07T03:18:52.991Z,15.37
2019-04-07T03:21:40.463Z,14.93
2019-04-07T03:24:17.494Z,15.50
2019-04-07T03:27:04.663Z,14.70
2019-04-07T03:29:45.328Z,15.30
2019-04-07T03:32:35.805Z,14.97
2019-04-07T03:35:32.376Z,15.17
2019-04-07T03:38:18.758Z,14.23
2019-04-07T03:40:55.462Z,14.50
2019-04-07T03:43:42.737Z,14.37
2019-04-07T03:46:32.463Z,15.53
2019-04-07T03:49:20.926Z,14.87
2019-04-07T03:52:15.333Z,13.80
2019-04-07T03:55:06.658Z,15.40
2019-04-07T03:58:04.305Z,13.17
2019-04-07T04:01:17.701Z,14.60
2019-04-07T04:04:05.455Z,14.60
2019-04-07T04:06:53.450Z,15.47
2019-04-07T04:09:32.509Z,14.00
2019-04-07T04:12:15.035Z,13.40
2019-04-07T04:14:50.783Z,15.07
2019-04-07T04:17:20.322Z,15.20
2019-04-07T04:19:49.819Z,16.10
2019-04-07T04:22:19.160Z,15.90
2019-04-07T04:24:55.617Z,14.57
2019-04-07T04:27:24.995Z,15.90
2019-04-07T04:29:55.200Z,14.87
2019-04-07T04:32:25.511Z,13.23
2019-04-07T04:34:55.028Z,13.80
2019-04-07T04:37:37.597Z,15.80
2019-04-07T04:39:55.794Z,14.50
2019-04-07T04:42:25.202Z,14.00
2019-04-07T04:44:54.530Z,13.00
2019-04-07T04:47:30.966Z,13.57
2019-04-07T04:50:00.407Z,12.40
2019-04-07T04:52:29.868Z,13.97
2019-04-07T04:54:59.148Z,13.37
2019-04-07T04:57:28.678Z,13.13
2019-04-07T04:59:58.112Z,13.03
2019-04-07T05:02:27.673Z,14.17
2019-04-07T05:04:57.430Z,13.13
2019-04-07T05:07:26.908Z,14.30
2019-04-07T05:09:56.801Z,12.43
2019-04-07T05:12:26.135Z,12.80
2019-04-07T05:14:55.952Z,12.43
2019-04-07T05:17:26.007Z,11.77
2019-04-07T05:19:55.570Z,13.00
2019-04-07T05:22:25.683Z,12.93
2019-04-07T05:24:55.555Z,12.73
2019-04-07T05:27:25.125Z,12.57
2019-04-07T05:29:55.627Z,11.77
2019-04-07T05:32:25.192Z,11.90
2019-04-07T05:34:54.610Z,12.90
2019-04-07T05:37:24.190Z,12.83
2019-04-07T05:39:53.785Z,11.13
2019-04-07T05:42:23.515Z,12.67
2019-04-07T05:44:53.571Z,11.37
2019-04-07T05:47:23.010Z,11.50
2019-04-07T05:49:57.391Z,10.23
2019-04-07T05:52:23.955Z,11.03
2019-04-07T05:54:53.474Z,9.73
2019-04-07T05:57:23.068Z,10.87
2019-04-07T05:59:56.072Z,10.30
2019-04-07T06:02:27.130Z,10.80
2019-04-07T06:04:58.576Z,11.47
2019-04-07T06:07:32.515Z,10.27
2019-04-07T06:10:02.373Z,12.20
2019-04-07T06:12:32.949Z,11.57
2019-04-07T06:15:02.334Z,12.23
2019-04-07T06:17:31.791Z,11.40
2019-04-07T06:20:01.486Z,11.20
2019-04-07T06:22:31.038Z,10.87
2019-04-07T06:25:02.467Z,11.50
2019-04-07T06:27:34.522Z,11.50
2019-04-07T06:30:05.623Z,11.87
2019-04-07T06:32:36.850Z,11.90
2019-04-07T06:35:08.501Z,11.03
2019-04-07T06:37:38.656Z,10.03
2019-04-07T06:40:09.056Z,11.33
2019-04-07T06:42:38.787Z,10.93
2019-04-07T06:45:10.885Z,11.30
2019-04-07T06:47:45.242Z,10.70
2019-04-07T06:50:29.139Z,8.77
2019-04-07T06:53:20.658Z,10.63
2019-04-07T06:56:23.197Z,11.27
2019-04-07T06:59:11.777Z,12.27
2019-04-07T07:01:56.500Z,7.90
2019-04-07T07:04:35.570Z,11.20
2019-04-07T07:07:11.979Z,11.20
2019-04-07T07:09:56.654Z,11.33
2019-04-07T07:13:28.343Z,9.80
2019-04-07T07:16:01.303Z,9.17
2019-04-07T07:19:05.212Z,10.73
2019-04-07T07:22:10.018Z,10.00
2019-04-07T07:24:36.966Z,10.30
2019-04-07T07:27:09.359Z,9.97
2019-04-07T07:29:37.390Z,10.10
2019-04-07T07:32:06.878Z,10.70
2019-04-07T07:34:39.870Z,10.93
2019-04-07T07:37:11.710Z,10.40
2019-04-07T07:39:45.106Z,9.40
2019-04-07T07:42:16.069Z,9.97
2019-04-07T07:44:45.481Z,10.83
2019-04-07T07:47:14.954Z,11.03
2019-04-07T07:49:47.086Z,10.97
2019-04-07T07:52:19.421Z,9.60
2019-04-07T07:54:48.484Z,8.20
2019-04-07T07:57:23.476Z,10.57
2019-04-07T07:59:50.019Z,10.73
2019-04-07T08:02:20.747Z,11.40
2019-04-07T08:04:51.085Z,10.90
2019-04-07T08:07:21.854Z,11.40
2019-04-07T08:09:54.065Z,11.07
2019-04-07T08:12:23.925Z,10.00
2019-04-07T08:15:39.309Z,11.10
2019-04-07T08:18:09.723Z,10.00
2019-04-07T08:20:42.925Z,10.50
2019-04-07T08:23:12.194Z,11.67
2019-04-07T08:25:41.556Z,11.73
2019-04-07T08:28:10.956Z,11.33
2019-04-07T08:30:43.926Z,10.23
2019-04-07T08:33:11.599Z,10.10
2019-04-07T08:35:41.250Z,9.73
2019-04-07T08:38:11.089Z,9.90
2019-04-07T08:40:40.848Z,10.80
2019-04-07T08:43:10.460Z,10.30
2019-04-07T08:45:40.189Z,9.20
2019-04-07T08:48:09.701Z,10.00
2019-04-07T08:50:39.887Z,10.70
2019-04-07T08:53:12.300Z,10.27
2019-04-07T08:55:41.641Z,9.63
2019-04-07T08:58:22.744Z,10.50
2019-04-07T09:00:49.147Z,10.00
2019-04-07T09:03:18.411Z,10.10
2019-04-07T09:05:47.873Z,13.37
2019-04-07T09:08:17.953Z,12.80
2019-04-07T09:10:53.765Z,10.13
2019-04-07T09:13:25.129Z,9.30
2019-04-07T09:16:15.029Z,9.40
2019-04-07T09:19:20.347Z,8.80
2019-04-07T09:22:07.446Z,10.50
2019-04-07T09:24:50.875Z,9.93
2019-04-07T09:27:42.207Z,9.30
2019-04-07T09:30:43.232Z,10.07
2019-04-07T09:33:38.153Z,9.50
2019-04-07T09:36:33.567Z,9.60
2019-04-07T09:39:12.301Z,10.97
2019-04-07T09:41:52.714Z,10.10
2019-04-07T09:44:37.333Z,10.70
2019-04-07T09:47:33.033Z,10.73
2019-04-07T09:50:20.395Z,9.87
2019-04-07T09:53:17.947Z,8.90
2019-04-07T09:56:01.354Z,10.10
2019-04-07T09:59:01.950Z,9.60
2019-04-07T10:01:54.062Z,12.33
2019-04-07T10:04:31.922Z,10.50
2019-04-07T10:07:15.120Z,10.53
2019-04-07T10:10:17.351Z,10.67
2019-04-07T10:12:57.796Z,11.60
2019-04-07T10:15:40.335Z,12.27
2019-04-07T10:18:26.124Z,10.73
2019-04-07T10:21:07.377Z,11.00
2019-04-07T10:23:59.244Z,11.80
2019-04-07T10:26:47.295Z,10.27
2019-04-07T10:29:35.342Z,10.90
2019-04-07T10:32:17.853Z,11.17
2019-04-07T10:35:08.990Z,12.47
2019-04-07T10:37:52.470Z,11.50
2019-04-07T10:40:45.356Z,12.07
2019-04-07T10:43:45.665Z,11.10
2019-04-07T10:46:35.198Z,11.40
2019-04-07T10:49:27.292Z,11.93
2019-04-07T10:52:26.121Z,12.10
2019-04-07T10:55:17.512Z,10.97
2019-04-07T10:58:09.084Z,11.00
2019-04-07T11:01:00.908Z,11.63
2019-04-07T11:03:58.292Z,11.70
2019-04-07T11:06:41.630Z,11.83
2019-04-07T11:09:21.108Z,12.43
2019-04-07T11:12:08.848Z,11.80
2019-04-07T11:14:57.118Z,11.57
2019-04-07T11:17:41.964Z,11.20
2019-04-07T11:20:30.263Z,12.77
2019-04-07T11:23:13.047Z,10.53
2019-04-07T11:26:04.558Z,12.10
2019-04-07T11:28:55.605Z,11.23
2019-04-07T11:31:42.896Z,10.93
2019-04-07T11:34:37.424Z,10.77
2019-04-07T11:37:26.283Z,11.57
2019-04-07T11:40:00.974Z,11.07
2019-04-07T11:42:37.644Z,12.20
2019-04-07T11:45:17.952Z,11.30
2019-04-07T11:48:12.188Z,13.70
2019-04-07T11:51:07.273Z,11.90
2019-04-07T11:53:58.933Z,11.30
2019-04-07T11:56:57.283Z,11.93
2019-04-07T11:59:50.145Z,11.63
2019-04-07T12:02:40.403Z,11.10
2019-04-07T12:05:39.838Z,10.63
2019-04-07T12:08:32.338Z,10.00
2019-04-07T12:11:13.104Z,10.30
2019-04-07T12:14:17.818Z,11.17
2019-04-07T12:17:12.429Z,10.60
2019-04-07T12:19:54.909Z,11.50
2019-04-07T12:22:52.758Z,11.07
2019-04-07T12:25:41.680Z,10.13
2019-04-07T12:28:21.391Z,11.20
2019-04-07T12:30:57.463Z,10.20
2019-04-07T12:33:45.821Z,9.53
2019-04-07T12:36:34.354Z,10.50
2019-04-07T12:39:19.052Z,10.00
2019-04-07T12:42:14.563Z,10.00
2019-04-07T12:45:06.171Z,10.03
2019-04-07T12:47:47.473Z,10.13
2019-04-07T12:50:35.474Z,12.00
2019-04-07T12:53:23.656Z,12.70
2019-04-07T12:56:13.377Z,12.90
2019-04-07T12:59:19.258Z,12.47
2019-04-07T13:02:00.759Z,13.00
2019-04-07T13:04:51.597Z,12.57
2019-04-07T13:07:48.431Z,12.17
2019-04-07T13:10:43.374Z,13.43
2019-04-07T13:13:37.424Z,13.10
2019-04-07T13:16:38.248Z,15.80
2019-04-07T13:19:41.835Z,14.67
2019-04-07T13:22:32.523Z,14.50
2019-04-07T13:25:23.961Z,17.30
2019-04-07T13:28:16.425Z,15.27
2019-04-07T13:31:16.947Z,14.47
2019-04-07T13:34:15.841Z,12.20
2019-04-07T13:36:56.731Z,15.90
2019-04-07T13:39:49.573Z,14.63
2019-04-07T13:42:27.875Z,14.60
2019-04-07T13:45:17.796Z,15.80
2019-04-07T13:48:28.955Z,14.37
2019-04-07T13:51:20.397Z,14.97
2019-04-07T13:54:22.153Z,16.10
2019-04-07T13:57:10.297Z,17.63
2019-04-07T14:00:07.839Z,16.00
2019-04-07T14:02:57.063Z,17.17
2019-04-07T14:05:38.836Z,16.60
2019-04-07T14:08:31.302Z,16.90
2019-04-07T14:11:20.928Z,18.33
2019-04-07T14:14:12.669Z,16.90
2019-04-07T14:17:07.318Z,17.20
2019-04-07T14:19:55.197Z,16.47
2019-04-07T14:22:58.946Z,17.27
2019-04-07T14:25:56.933Z,16.93
2019-04-07T14:28:45.773Z,16.47
2019-04-07T14:31:33.613Z,16.50
2019-04-07T14:34:21.767Z,18.30
2019-04-07T14:37:01.811Z,18.90
2019-04-07T14:39:49.159Z,18.23
2019-04-07T14:42:27.525Z,17.87
2019-04-07T14:45:21.829Z,18.23
2019-04-07T14:48:05.465Z,19.50
2019-04-07T14:50:50.307Z,18.07
2019-04-07T14:53:38.681Z,17.43
2019-04-07T14:56:26.280Z,19.10
2019-04-07T14:59:14.903Z,19.07
2019-04-07T15:02:02.095Z,18.60
2019-04-07T15:04:37.964Z,18.23
2019-04-07T15:07:30.302Z,18.37
2019-04-07T15:10:16.652Z,17.20
2019-04-07T15:12:57.958Z,18.50
2019-04-07T15:15:27.882Z,17.87
2019-04-07T15:17:58.793Z,18.40
2019-04-07T15:20:28.252Z,16.60
2019-04-07T15:22:59.867Z,18.53
2019-04-07T15:25:29.633Z,18.33
2019-04-07T15:28:00.403Z,17.20
2019-04-07T15:30:31.107Z,17.30
2019-04-07T15:33:01.532Z,17.80
2019-04-07T15:35:31.518Z,17.50
2019-04-07T15:38:03.397Z,17.87
2019-04-07T15:40:35.848Z,17.60
2019-04-07T15:43:06.084Z,17.60
2019-04-07T15:45:35.452Z,17.27
2019-04-07T15:48:05.058Z,17.40
2019-04-07T15:50:34.388Z,17.33
2019-04-07T15:53:03.814Z,16.73
2019-04-07T15:55:45.831Z,18.03
2019-04-07T15:58:05.302Z,16.00
2019-04-07T16:00:35.315Z,15.93
2019-04-07T16:03:05.489Z,19.10
2019-04-07T16:05:40.417Z,17.57
2019-04-07T16:08:06.311Z,19.63
2019-04-07T16:10:36.252Z,17.90
2019-04-07T16:13:06.640Z,18.77
2019-04-07T16:15:36.188Z,19.03
2019-04-07T16:18:08.723Z,19.23
2019-04-07T16:20:41.647Z,19.40
2019-04-07T16:23:11.056Z,19.37
2019-04-07T16:25:41.798Z,20.23
2019-04-07T16:28:13.646Z,20.40
2019-04-07T16:30:42.826Z,19.40
2019-04-07T16:33:12.292Z,19.90
2019-04-07T16:35:46.951Z,19.63
2019-04-07T16:38:15.236Z,19.97
2019-04-07T16:40:44.739Z,18.83
2019-04-07T16:43:16.288Z,20.33
2019-04-07T16:45:46.245Z,19.70
2019-04-07T16:48:16.348Z,18.57
2019-04-07T16:50:46.380Z,20.53
2019-04-07T16:53:16.775Z,19.43
2019-04-07T16:55:48.912Z,19.90
2019-04-07T16:58:19.313Z,20.00
2019-04-07T17:00:49.850Z,20.03
2019-04-07T17:03:19.282Z,18.57
2019-04-07T17:05:48.735Z,18.77
2019-04-07T17:08:21.082Z,21.23
2019-04-07T17:10:49.252Z,21.80
2019-04-07T17:13:28.007Z,20.50
2019-04-07T17:15:51.986Z,21.77
2019-04-07T17:18:43.094Z,20.00
2019-04-07T17:21:20.443Z,19.57
2019-04-07T17:23:55.376Z,19.97
2019-04-07T17:26:37.462Z,21.50
2019-04-07T17:29:05.110Z,21.70
2019-04-07T17:31:34.803Z,20.90
2019-04-07T17:34:09.903Z,20.80
2019-04-07T17:36:39.340Z,19.83
2019-04-07T17:39:36.921Z,21.00
2019-04-07T17:42:06.450Z,21.23
2019-04-07T17:45:13.184Z,19.93
2019-04-07T17:48:02.971Z,19.13
2019-04-07T17:50:48.701Z,20.80
2019-04-07T17:53:40.128Z,19.13
2019-04-07T17:56:41.913Z,20.70
2019-04-07T17:59:54.791Z,20.53
2019-04-07T18:02:55.563Z,19.63
2019-04-07T18:05:43.011Z,21.40
2019-04-07T18:08:41.782Z,21.77
2019-04-07T18:11:25.167Z,21.90
2019-04-07T18:14:31.148Z,20.80
2019-04-07T18:17:20.400Z,21.47
2019-04-07T18:20:15.721Z,21.70
2019-04-07T18:23:11.065Z,18.87
2019-04-07T18:25:47.755Z,20.43
2019-04-07T18:28:26.343Z,19.17
2019-04-07T18:31:14.079Z,20.30
2019-04-07T18:34:03.772Z,20.07
2019-04-07T18:36:52.162Z,20.67
2019-04-07T18:39:54.542Z,19.30
2019-04-07T18:42:29.693Z,20.50
2019-04-07T18:45:18.911Z,19.57
2019-04-07T18:48:02.287Z,20.77
2019-04-07T18:51:12.607Z,19.87
2019-04-07T18:54:09.959Z,21.07
2019-04-07T18:56:54.458Z,19.63
2019-04-07T18:59:32.159Z,20.80
2019-04-07T19:02:38.641Z,20.97
2019-04-07T19:05:31.570Z,20.30
2019-04-07T19:08:20.761Z,20.70
2019-04-07T19:11:15.987Z,18.67
2019-04-07T19:14:30.550Z,19.40
2019-04-07T19:17:23.407Z,20.20
2019-04-07T19:20:09.278Z,22.07
2019-04-07T19:22:51.407Z,20.50
2019-04-07T19:25:47.763Z,20.63
2019-04-07T19:28:37.206Z,20.40
2019-04-07T19:31:25.775Z,19.50
2019-04-07T19:34:20.529Z,20.73
2019-04-07T19:37:08.139Z,19.70
2019-04-07T19:39:46.818Z,19.13
2019-04-07T19:42:28.452Z,21.70
2019-04-07T19:45:37.544Z,19.50
2019-04-07T19:48:42.502Z,21.77
2019-04-07T19:51:17.767Z,19.63
2019-04-07T19:54:17.639Z,21.70
2019-04-07T19:56:57.560Z,21.50
2019-04-07T19:59:51.024Z,24.30
2019-04-07T20:02:45.563Z,23.60
2019-04-07T20:05:34.358Z,20.60
2019-04-07T20:08:23.432Z,21.60
2019-04-07T20:11:13.828Z,21.47
2019-04-07T20:14:12.570Z,20.60
2019-04-07T20:16:58.094Z,21.80
2019-04-07T20:20:02.189Z,21.00
2019-04-07T20:22:56.945Z,21.67
2019-04-07T20:25:47.801Z,19.00
2019-04-07T20:28:30.381Z,20.90
2019-04-07T20:31:19.416Z,21.43
2019-04-07T20:34:03.772Z,18.90
2019-04-07T20:36:44.361Z,20.50
2019-04-07T20:39:20.059Z,20.77
2019-04-07T20:41:56.785Z,20.23
2019-04-07T20:45:01.835Z,22.43
2019-04-07T20:47:44.882Z,21.23
2019-04-07T20:50:51.570Z,21.00
2019-04-07T20:53:52.163Z,20.70
2019-04-07T20:56:49.842Z,21.83
2019-04-07T20:59:52.587Z,21.60
2019-04-07T21:02:36.306Z,21.00
2019-04-07T21:05:29.253Z,19.37
2019-04-07T21:08:23.021Z,22.50
2019-04-07T21:11:17.398Z,18.53
2019-04-07T21:14:11.899Z,19.37
2019-04-07T21:16:51.147Z,21.43
2019-04-07T21:19:55.457Z,22.60
2019-04-07T21:22:45.215Z,22.40
2019-04-07T21:25:33.877Z,21.97
2019-04-07T21:28:13.809Z,20.47
2019-04-07T21:31:07.932Z,23.30
2019-04-07T21:33:56.923Z,21.57
2019-04-07T21:36:39.938Z,22.13
2019-04-07T21:39:28.556Z,21.60
2019-04-07T21:42:22.000Z,22.97
2019-04-07T21:45:10.455Z,20.97
2019-04-07T21:47:48.209Z,22.47
2019-04-07T21:50:27.005Z,23.23
2019-04-07T21:53:14.336Z,23.10
2019-04-07T21:55:57.265Z,23.37
2019-04-07T21:58:46.446Z,23.63
2019-04-07T22:01:37.706Z,22.60
2019-04-07T22:04:25.316Z,23.30
2019-04-07T22:07:09.093Z,21.10
2019-04-07T22:09:47.086Z,22.13
2019-04-07T22:12:13.634Z,22.70
2019-04-07T22:14:44.378Z,22.40
2019-04-07T22:17:14.003Z,22.97
2019-04-07T22:19:46.017Z,22.33
2019-04-07T22:22:14.444Z,22.50
2019-04-07T22:24:44.277Z,25.20
2019-04-07T22:27:13.858Z,25.77
2019-04-07T22:29:43.198Z,24.17
2019-04-07T22:32:14.872Z,24.37
2019-04-07T22:34:44.030Z,23.13
2019-04-07T22:37:15.540Z,23.65
2019-04-07T22:39:45.513Z,25.43
2019-04-07T22:42:16.694Z,24.60
2019-04-07T22:44:46.179Z,25.67
2019-04-07T22:47:16.778Z,24.50
2019-04-07T22:49:46.235Z,24.77
2019-04-07T22:52:18.857Z,25.77
2019-04-07T22:54:48.677Z,23.33
2019-04-07T22:57:18.101Z,25.20
2019-04-07T22:59:48.268Z,23.50
2019-04-07T23:02:17.943Z,24.93
2019-04-07T23:04:47.350Z,24.50
2019-04-07T23:07:16.708Z,24.80
2019-04-07T23:09:46.035Z,25.40
2019-04-07T23:12:15.538Z,24.97
2019-04-07T23:14:44.842Z,21.90
2019-04-07T23:17:14.217Z,24.30
2019-04-07T23:19:43.608Z,23.23
2019-04-07T23:22:13.983Z,26.00
2019-04-07T23:24:43.361Z,20.73
2019-04-07T23:27:12.715Z,26.10
2019-04-07T23:29:42.312Z,23.10
2019-04-07T23:32:11.745Z,26.00
2019-04-07T23:34:41.541Z,26.07
2019-04-07T23:37:11.090Z,25.53
2019-04-07T23:39:40.491Z,25.37
2019-04-07T23:42:09.876Z,24.50
2019-04-07T23:44:39.435Z,26.30
2019-04-07T23:47:08.884Z,25.97
2019-04-07T23:49:38.514Z,25.00
2019-04-07T23:52:08.902Z,25.80
2019-04-07T23:54:38.672Z,23.90
2019-04-07T23:57:07.988Z,22.60
2019-04-07T23:59:37.335Z,24.47
